Weather at Cardston Airport

Public forecast

Using degrees Celsius for public forecast. Weather courtesy of forecast.io.

Closest aviation weather report (METAR) to Cardston Airport

Closest report is Lethbridge County Airport, 32.9 nm (61.0 km) NNE.

2024/05/20 07:00 (retrieved 17 minutes ago)

CYQL 200700Z AUTO 04011KT 9SM -RA FEW023 SCT034 OVC076 05/04 A3000 RMK SLP178

Closest aviation forecast (TAF) to Cardston Airport

Closest forecast is Lethbridge County Airport, 32.9 nm (61.0 km) NNE.

2024/05/20 06:57 Ammendment (retrieved 20 minutes ago)

TAF AMD TAF AMD CYQL 200654Z 2006/2018 03010KT P6SM -SHRA SCT025 BKN060 TEMPO 2006/2009 5SM -SHRA BR BKN020 OVC040 FM200900 25006KT P6SM FEW020 BKN070 TEMPO 2012/2015 BKN020 BECMG 2015/2017 29008KT BKN025 FM201700 31008KT P6SM BKN030 TEMPO 2017/2018 P6SM -SHRA RMK FCST BASED ON AUTO OBS NXT FCST BY 201200Z